Munlochy, United Kingdom
Current Conditions -  °F | °C
As of 9:50 AM on Friday 19 Dec 2014 (Local Time) from EGPE Reporting Station
Rain Showers Rain Showers  
Wind Chill: -3°   Ceiling: Unl
Heat Index:   Visibility: 6mi
Dew Point:   Wind: 25mph
Humidity: 87%   Direction: 250°WSW
Pressure: 29.44"   Gusts: 38mph
Location:  57.55°N, 4.26°W
Report Text: EGPE 190950Z 25022G33KT 9999 VCSH SCT015CB SCT034 03/01 Q0997
Loading
Personal Weather Stations






























Interactive Weather Map New forecast layout! Learn more

10-Day Weather Forecast

Advertisements
Track Severe Weather on mobile